Time;durP1;ratioP1;P1;durP2;ratioP2;P2;SDS_P1;SDS_P2;PMS_P1;PMS_P2;Temp;Humidity;BMP_temperature;BMP_pressure;BME280_temperature;BME280_humidity;BME280_pressure;Samples;Min_cycle;Max_cycle;Signal;HPM_P1;HPM_P2
2022/10/02 00:00:16;;;;;;;14.35;3.50;;;11.70;99.90;;;;;;5072470;28;20043;-85
2022/10/02 00:02:45;;;;;;;16.95;3.28;;;11.70;99.90;;;;;;5072763;28;20076;-82
2022/10/02 00:05:13;;;;;;;15.35;3.08;;;11.70;99.90;;;;;;5071850;28;20405;-84
2022/10/02 00:07:57;;;;;;;17.52;3.55;;;11.70;99.90;;;;;;5053961;28;20067;-83
2022/10/02 00:10:30;;;;;;;10.35;2.90;;;11.60;99.90;;;;;;5054223;28;20056;-84
2022/10/02 00:13:06;;;;;;;12.75;2.83;;;11.60;99.90;;;;;;5071917;28;20124;-81
2022/10/02 00:15:36;;;;;;;15.07;3.13;;;11.60;99.90;;;;;;5072325;28;20059;-83
2022/10/02 00:18:08;;;;;;;11.48;2.67;;;11.50;99.90;;;;;;5071904;28;20052;-82
2022/10/02 00:20:44;;;;;;;13.73;2.35;;;11.40;99.90;;;;;;5054200;28;20769;-83
2022/10/02 00:23:44;;;;;;;11.85;2.47;;;11.40;99.90;;;;;;5072194;28;20094;-83
2022/10/02 00:26:47;;;;;;;12.82;2.88;;;11.30;99.90;;;;;;4990437;28;20062;-83
2022/10/02 00:29:32;;;;;;;18.15;3.70;;;11.20;99.90;;;;;;4990348;28;20047;-83
2022/10/02 00:32:34;;;;;;;14.52;2.80;;;11.20;99.90;;;;;;4989961;28;20089;-82
2022/10/02 00:35:09;;;;;;;12.35;2.60;;;11.20;99.90;;;;;;4973204;28;20070;-83
2022/10/02 00:37:45;;;;;;;20.95;3.17;;;11.10;99.90;;;;;;4973735;28;20062;-80
2022/10/02 00:40:33;;;;;;;18.23;3.20;;;11.10;99.90;;;;;;4989581;28;20046;-82
2022/10/02 00:43:19;;;;;;;16.45;3.17;;;11.10;99.90;;;;;;4973354;28;20054;-83
2022/10/02 00:46:06;;;;;;;14.98;3.33;;;11.00;99.90;;;;;;4989791;28;20051;-82
2022/10/02 00:48:47;;;;;;;15.45;2.92;;;11.00;99.90;;;;;;4989896;28;20445;-82
2022/10/02 00:51:43;;;;;;;15.13;2.92;;;11.00;99.90;;;;;;4989693;28;20050;-81
2022/10/02 00:54:42;;;;;;;12.43;2.92;;;11.00;99.90;;;;;;4989877;28;20469;-82
2022/10/02 00:57:32;;;;;;;15.07;2.70;;;11.00;99.90;;;;;;4989645;28;20124;-81
2022/10/02 01:00:07;;;;;;;13.55;2.75;;;10.90;99.90;;;;;;4989686;28;20043;-81
2022/10/02 01:02:57;;;;;;;11.80;2.83;;;10.90;99.90;;;;;;5030215;28;20052;-83
2022/10/02 01:05:24;;;;;;;18.55;2.97;;;10.90;99.90;;;;;;5071284;28;20385;-84
2022/10/02 01:07:52;;;;;;;17.17;3.08;;;10.90;99.90;;;;;;5070425;28;20128;-85
2022/10/02 01:10:21;;;;;;;15.40;2.58;;;11.20;99.90;;;;;;5070668;28;20045;-80
2022/10/02 01:12:48;;;;;;;18.88;3.08;;;10.90;99.90;;;;;;5052433;28;20052;-82
2022/10/02 01:15:20;;;;;;;12.20;2.92;;;10.90;99.90;;;;;;5070861;28;20242;-81
2022/10/02 01:17:49;;;;;;;14.70;2.85;;;10.90;99.90;;;;;;5070431;28;20041;-81
2022/10/02 01:20:18;;;;;;;19.58;2.58;;;11.10;99.90;;;;;;5070642;28;20041;-81
2022/10/02 01:22:46;;;;;;;13.80;2.88;;;10.90;99.90;;;;;;5069842;28;20040;-79
2022/10/02 01:25:12;;;;;;;13.95;2.95;;;11.30;99.90;;;;;;5070407;28;20041;-83
2022/10/02 01:27:38;;;;;;;19.65;4.10;;;10.90;99.90;;;;;;5052171;28;20040;-81
2022/10/02 01:30:08;;;;;;;14.52;2.67;;;10.90;99.90;;;;;;5069937;28;20048;-83
2022/10/02 01:32:39;;;;;;;17.85;2.92;;;10.90;99.90;;;;;;5069596;28;20036;-80
2022/10/02 01:35:06;;;;;;;14.35;2.97;;;10.90;99.90;;;;;;5051245;28;20044;-82
2022/10/02 01:37:33;;;;;;;17.10;2.75;;;10.90;99.90;;;;;;5070085;28;20432;-81
2022/10/02 01:40:05;;;;;;;14.95;3.10;;;10.90;99.90;;;;;;5051014;28;20120;-83
2022/10/02 01:42:32;;;;;;;22.98;3.80;;;10.90;99.90;;;;;;5069931;28;20119;-83
2022/10/02 01:44:59;;;;;;;18.20;3.20;;;10.90;99.90;;;;;;5069481;28;20037;-83
2022/10/02 01:47:57;;;;;;;15.93;2.92;;;11.10;99.90;;;;;;5069674;28;20048;-83
2022/10/02 01:50:39;;;;;;;16.48;2.50;;;11.00;99.90;;;;;;5062732;28;20044;-83
2022/10/02 01:53:25;;;;;;;17.95;2.58;;;11.00;99.90;;;;;;5069302;28;20071;-84
2022/10/02 01:56:10;;;;;;;18.85;3.05;;;11.00;99.90;;;;;;5051434;28;20094;-83
2022/10/02 01:58:39;;;;;;;12.13;2.65;;;11.00;99.90;;;;;;5069746;28;20097;-81
2022/10/02 02:01:26;;;;;;;16.73;2.90;;;11.00;99.90;;;;;;5068976;28;20052;-79
2022/10/02 02:03:53;;;;;;;15.85;2.70;;;11.00;99.90;;;;;;5055793;28;20053;-82
2022/10/02 02:06:38;;;;;;;15.68;2.90;;;11.00;99.90;;;;;;5048712;28;20057;-82
2022/10/02 02:09:16;;;;;;;14.53;2.17;;;11.00;99.90;;;;;;5031665;28;20093;-81
2022/10/02 02:11:49;;;;;;;13.10;2.63;;;11.00;99.90;;;;;;5047113;28;20350;-80
2022/10/02 02:14:18;;;;;;;16.02;2.47;;;11.20;99.90;;;;;;5048664;28;20060;-81
2022/10/02 02:16:48;;;;;;;15.80;2.53;;;11.00;99.90;;;;;;5048818;28;20108;-85
2022/10/02 02:19:16;;;;;;;10.18;1.92;;;11.00;99.90;;;;;;5048840;28;20048;-83
2022/10/02 02:21:51;;;;;;;13.15;2.15;;;11.10;99.90;;;;;;5048957;28;20073;-86
2022/10/02 02:24:24;;;;;;;13.10;2.13;;;11.30;99.90;;;;;;5031106;28;20131;-83
2022/10/02 02:26:51;;;;;;;10.25;1.90;;;11.20;99.90;;;;;;5048625;28;20041;-84
2022/10/02 02:29:21;;;;;;;15.13;2.70;;;11.10;99.90;;;;;;5031152;28;20044;-84
2022/10/02 02:31:50;;;;;;;15.45;2.58;;;11.10;99.90;;;;;;5048670;28;20041;-83
2022/10/02 02:34:24;;;;;;;14.27;2.30;;;11.10;99.90;;;;;;5031141;28;20424;-82
2022/10/02 02:36:55;;;;;;;17.45;1.95;;;11.10;99.90;;;;;;5048816;28;20084;-82
2022/10/02 02:39:39;;;;;;;16.25;2.25;;;11.50;99.90;;;;;;5048526;28;20048;-83
2022/10/02 02:42:09;;;;;;;17.25;1.80;;;11.20;99.90;;;;;;5048334;28;20052;-78
2022/10/02 02:44:46;;;;;;;13.50;2.08;;;11.20;99.90;;;;;;5028090;28;20531;-79
2022/10/02 02:47:18;;;;;;;12.77;2.25;;;11.30;99.90;;;;;;5049322;28;20136;-81
2022/10/02 02:50:07;;;;;;;17.92;2.67;;;11.30;99.90;;;;;;5030819;28;20045;-81
2022/10/02 02:52:57;;;;;;;12.40;1.92;;;11.30;99.90;;;;;;5027383;28;20120;-81
2022/10/02 02:55:31;;;;;;;17.27;2.50;;;11.30;99.90;;;;;;5021699;28;20501;-83
2022/10/02 02:58:03;;;;;;;;;;;11.30;99.90;;;;;;5019674;28;20456;-81
2022/10/02 03:00:28;;;;;;;10.43;2.15;;;11.30;99.90;;;;;;5026114;28;19928;-82
2022/10/02 03:02:54;;;;;;;16.13;2.22;;;11.40;99.90;;;;;;5025724;28;20569;-80
2022/10/02 03:05:23;;;;;;;14.35;2.35;;;11.50;99.90;;;;;;4990108;28;20414;-81
2022/10/02 03:07:58;;;;;;;12.73;1.98;;;11.40;99.90;;;;;;5020275;28;20141;-82
2022/10/02 03:10:35;;;;;;;10.50;2.42;;;11.40;99.90;;;;;;5022568;28;20068;-82
2022/10/02 03:13:07;;;;;;;14.27;2.00;;;11.40;99.90;;;;;;5028607;28;20432;-81
2022/10/02 03:15:39;;;;;;;15.55;2.30;;;11.40;99.90;;;;;;5023118;28;20042;-84
2022/10/02 03:18:17;;;;;;;15.50;2.15;;;11.40;99.90;;;;;;5022189;28;20051;-82
2022/10/02 03:21:08;;;;;;;16.75;2.00;;;11.40;99.90;;;;;;5029780;28;20044;-79
2022/10/02 03:23:56;;;;;;;16.90;2.17;;;11.40;99.90;;;;;;5022271;28;20068;-81
2022/10/02 03:26:37;;;;;;;11.88;2.28;;;11.40;99.90;;;;;;5015454;28;20092;-81
2022/10/02 03:29:09;;;;;;;16.13;1.92;;;11.60;99.90;;;;;;5027351;28;20088;-81
2022/10/02 03:31:35;;;;;;;10.20;1.50;;;11.50;99.90;;;;;;5052474;28;20511;-83
2022/10/02 03:34:02;;;;;;;13.43;1.90;;;11.50;99.90;;;;;;5052345;28;20383;-83
2022/10/02 03:36:29;;;;;;;14.38;2.58;;;11.60;99.90;;;;;;5052191;28;20071;-83
2022/10/02 03:38:59;;;;;;;13.55;2.00;;;11.50;99.90;;;;;;5051870;28;20077;-80
2022/10/02 03:41:24;;;;;;;14.60;2.28;;;11.50;99.90;;;;;;5052317;28;20095;-79
2022/10/02 03:43:50;;;;;;;15.38;2.33;;;11.60;99.90;;;;;;5051985;28;20065;-79
2022/10/02 03:46:16;;;;;;;23.90;2.22;;;11.80;99.90;;;;;;5052063;28;20492;-81
2022/10/02 03:48:41;;;;;;;12.15;2.72;;;11.60;99.90;;;;;;5014882;28;20049;-81
2022/10/02 03:51:07;;;;;;;18.27;2.80;;;11.60;99.90;;;;;;5050752;28;20045;-85
2022/10/02 03:53:33;;;;;;;16.38;2.22;;;11.60;99.90;;;;;;5034183;28;20049;-84
2022/10/02 03:56:08;;;;;;;13.18;1.73;;;11.60;99.90;;;;;;5051482;28;20451;-81
2022/10/02 03:58:40;;;;;;;14.02;2.53;;;11.60;99.90;;;;;;5052571;28;20119;-84
2022/10/02 04:01:17;;;;;;;14.07;2.63;;;11.80;99.90;;;;;;5052187;28;20487;-79
2022/10/02 04:03:53;;;;;;;11.93;2.38;;;12.00;99.90;;;;;;5052282;28;20041;-83
2022/10/02 04:06:24;;;;;;;22.92;2.63;;;11.50;99.90;;;;;;5051705;28;20039;-83
2022/10/02 04:08:53;;;;;;;16.20;2.25;;;11.50;99.90;;;;;;5051747;28;20045;-80
2022/10/02 04:11:42;;;;;;;13.25;1.98;;;11.50;99.90;;;;;;5016383;28;20128;-81
2022/10/02 04:14:42;;;;;;;11.52;2.30;;;11.50;99.90;;;;;;5040651;28;20045;-82
2022/10/02 04:17:22;;;;;;;19.10;2.45;;;11.50;99.90;;;;;;5049719;28;20048;-82
2022/10/02 04:19:56;;;;;;;16.15;2.47;;;11.50;99.90;;;;;;5046095;28;20041;-79
2022/10/02 04:22:44;;;;;;;17.90;2.67;;;11.40;99.90;;;;;;5033151;28;20041;-80
2022/10/02 04:25:16;;;;;;;22.02;2.17;;;11.40;99.90;;;;;;5051093;28;20291;-78
2022/10/02 04:28:06;;;;;;;21.05;2.63;;;11.40;99.90;;;;;;5051651;28;20048;-80
2022/10/02 04:30:32;;;;;;;18.48;2.42;;;11.30;99.90;;;;;;5046815;28;20127;-80
2022/10/02 04:33:13;;;;;;;16.52;2.30;;;11.30;99.90;;;;;;5033107;28;21043;-79
2022/10/02 04:35:57;;;;;;;19.77;2.17;;;11.30;99.90;;;;;;5043866;28;20503;-81
2022/10/02 04:38:53;;;;;;;16.13;2.17;;;11.50;99.90;;;;;;5050934;28;20057;-81
2022/10/02 04:42:03;;;;;;;17.15;2.17;;;11.20;99.90;;;;;;5050734;28;20052;-82
2022/10/02 04:44:46;;;;;;;14.02;1.90;;;11.20;99.90;;;;;;5020354;28;20468;-80
2022/10/02 04:47:30;;;;;;;25.73;2.60;;;11.20;99.90;;;;;;5010107;28;20057;-84
2022/10/02 04:50:08;;;;;;;13.88;2.00;;;11.10;99.90;;;;;;5014981;28;20041;-84
2022/10/02 04:53:11;;;;;;;13.77;2.10;;;11.10;99.90;;;;;;5027684;28;20115;-86
2022/10/02 04:55:45;;;;;;;20.00;2.25;;;11.10;99.90;;;;;;5004161;28;20081;-80
2022/10/02 04:58:26;;;;;;;19.35;2.42;;;11.00;99.90;;;;;;5011355;28;20049;-87
2022/10/02 05:00:54;;;;;;;19.70;2.10;;;11.00;99.90;;;;;;5023296;28;20619;-84
2022/10/02 05:03:37;;;;;;;12.63;1.73;;;10.90;99.90;;;;;;5027324;28;20049;-83
2022/10/02 05:06:26;;;;;;;17.58;2.47;;;11.00;99.90;;;;;;5020416;28;20099;-80
2022/10/02 05:09:24;;;;;;;17.45;2.58;;;10.90;99.90;;;;;;5011161;28;20149;-81
2022/10/02 05:12:05;;;;;;;13.52;1.90;;;10.90;99.90;;;;;;5012725;28;20842;-82
2022/10/02 05:14:37;;;;;;;17.30;2.22;;;10.90;99.90;;;;;;5003425;28;20057;-81
2022/10/02 05:17:27;;;;;;;19.25;2.35;;;10.90;99.90;;;;;;5026851;28;20072;-83
2022/10/02 05:20:05;;;;;;;16.70;2.25;;;10.80;99.90;;;;;;5025186;28;20061;-83
2022/10/02 05:23:09;;;;;;;14.55;1.90;;;10.80;99.90;;;;;;5050498;28;20048;-79
2022/10/02 05:25:55;;;;;;;16.55;1.80;;;10.70;99.90;;;;;;5050079;28;20864;-84
2022/10/02 05:28:53;;;;;;;17.02;2.20;;;10.70;99.90;;;;;;5050205;28;20120;-86
2022/10/02 05:31:34;;;;;;;15.30;2.33;;;10.70;99.90;;;;;;5050464;28;20041;-86
2022/10/02 05:34:39;;;;;;;13.95;1.88;;;10.60;99.90;;;;;;5049653;28;20053;-85
2022/10/02 05:37:28;;;;;;;13.15;1.60;;;10.60;99.90;;;;;;5015794;28;20053;-85
2022/10/02 05:40:16;;;;;;;13.98;1.90;;;10.80;99.90;;;;;;5031807;28;20741;-85
2022/10/02 05:43:09;;;;;;;15.00;2.05;;;10.50;99.90;;;;;;5031491;28;20045;-81
2022/10/02 05:45:39;;;;;;;18.58;2.70;;;10.40;99.90;;;;;;5021387;28;20474;-84
2022/10/02 05:48:41;;;;;;;16.88;2.58;;;10.40;99.90;;;;;;5024258;28;20173;-83
2022/10/02 05:51:35;;;;;;;15.77;2.03;;;10.50;99.90;;;;;;5014995;28;20064;-82
2022/10/02 05:54:13;;;;;;;14.20;1.98;;;10.40;99.90;;;;;;5046652;28;20527;-84
2022/10/02 05:56:46;;;;;;;12.73;1.88;;;10.50;99.90;;;;;;5046828;28;20575;-85
2022/10/02 05:59:36;;;;;;;17.65;2.08;;;10.70;99.90;;;;;;5030753;28;20439;-85
2022/10/02 06:02:10;;;;;;;20.02;2.10;;;10.40;99.90;;;;;;5012506;28;20061;-83
2022/10/02 06:04:42;;;;;;;13.77;2.25;;;10.40;99.90;;;;;;5046428;28;20045;-83
2022/10/02 06:07:13;;;;;;;22.30;2.58;;;10.40;99.90;;;;;;5046475;28;20115;-87
2022/10/02 06:09:51;;;;;;;14.80;2.35;;;10.40;99.90;;;;;;5030142;28;20049;-86
2022/10/02 06:12:29;;;;;;;15.13;2.40;;;10.30;99.90;;;;;;5039795;28;20136;-86
2022/10/02 06:15:14;;;;;;;14.10;1.90;;;10.30;99.90;;;;;;5029887;28;20065;-83
2022/10/02 06:17:54;;;;;;;21.58;2.15;;;10.30;99.90;;;;;;5046958;28;20055;-85
2022/10/02 06:20:24;;;;;;;14.63;1.98;;;10.30;99.90;;;;;;5046507;28;20060;-85
2022/10/02 06:23:16;;;;;;;18.05;1.92;;;10.60;99.90;;;;;;5038649;28;20080;-86
2022/10/02 06:25:59;;;;;;;20.92;2.75;;;10.30;99.90;;;;;;4961487;28;20051;-85
2022/10/02 06:28:28;;;;;;;19.95;2.85;;;10.30;99.90;;;;;;4938434;28;20070;-86
2022/10/02 06:31:20;;;;;;;20.40;2.38;;;10.30;99.90;;;;;;4956387;28;20051;-82
2022/10/02 06:33:45;;;;;;;13.30;2.10;;;10.30;99.90;;;;;;4956569;28;20047;-84
2022/10/02 06:36:17;;;;;;;15.93;2.30;;;10.40;99.90;;;;;;4960602;28;20065;-81
2022/10/02 06:39:17;;;;;;;21.33;2.58;;;10.40;99.90;;;;;;4944974;28;20038;-85
2022/10/02 06:42:05;;;;;;;20.63;2.65;;;10.50;99.90;;;;;;4961648;28;20474;-85
2022/10/02 06:44:55;;;;;;;10.35;2.17;;;10.60;99.90;;;;;;4885404;29;20067;-81
2022/10/02 06:47:49;;;;;;;16.20;2.50;;;10.70;99.90;;;;;;4892226;29;20506;-81
2022/10/02 06:50:39;;;;;;;20.67;2.87;;;10.80;99.90;;;;;;4879695;29;20072;-83
2022/10/02 06:53:14;;;;;;;23.02;2.75;;;11.00;99.90;;;;;;4882953;29;20826;-83
2022/10/02 06:55:40;;;;;;;17.88;2.42;;;11.10;99.90;;;;;;4891794;29;20109;-85
2022/10/02 06:58:46;;;;;;;18.70;2.45;;;11.20;99.90;;;;;;4884258;29;20527;-83
2022/10/02 07:01:50;;;;;;;19.50;2.22;;;11.30;99.90;;;;;;4891384;29;20056;-82
2022/10/02 07:04:50;;;;;;;17.08;2.03;;;11.50;99.90;;;;;;4948191;28;20043;-81
2022/10/02 07:07:28;;;;;;;19.88;2.50;;;11.50;99.90;;;;;;4947473;29;20067;-86
2022/10/02 07:10:16;;;;;;;22.67;2.10;;;11.50;99.90;;;;;;4948438;29;20087;-83
2022/10/02 07:13:36;;;;;;;17.77;2.58;;;11.60;99.90;;;;;;4948287;29;20066;-86
2022/10/02 07:16:19;;;;;;;18.63;2.67;;;11.60;99.90;;;;;;4942148;29;20122;-83
2022/10/02 07:19:35;;;;;;;15.38;2.20;;;11.70;99.90;;;;;;4948283;29;20052;-82
2022/10/02 07:22:13;;;;;;;16.03;2.80;;;11.80;99.90;;;;;;5015462;28;20053;-83
2022/10/02 07:25:21;;;;;;;25.73;2.70;;;11.80;99.90;;;;;;5030637;28;20095;-81
2022/10/02 07:27:47;;;;;;;21.45;2.72;;;11.90;99.90;;;;;;5047956;28;20051;-84
2022/10/02 07:30:16;;;;;;;16.00;2.55;;;11.90;99.90;;;;;;5030314;28;20063;-79
2022/10/02 07:32:47;;;;;;;15.35;2.20;;;12.00;99.90;;;;;;5048283;28;20041;-82
2022/10/02 07:35:25;;;;;;;13.63;2.35;;;12.10;99.90;;;;;;5048223;28;20049;-81
2022/10/02 07:38:09;;;;;;;15.93;2.80;;;12.10;99.90;;;;;;5048160;28;20045;-84
2022/10/02 07:40:36;;;;;;;12.13;2.20;;;12.10;99.90;;;;;;5029858;28;20053;-78
2022/10/02 07:43:14;;;;;;;11.00;2.50;;;12.20;99.90;;;;;;5029600;28;20508;-80
2022/10/02 07:45:41;;;;;;;15.88;2.05;;;12.40;99.90;;;;;;5048192;28;20048;-79
2022/10/02 07:48:31;;;;;;;16.42;1.95;;;12.40;99.90;;;;;;5048292;28;20381;-81
2022/10/02 07:51:46;;;;;;;14.65;3.47;;;12.50;99.90;;;;;;5027788;28;20061;-81
2022/10/02 07:54:51;;;;;;;14.13;2.03;;;12.50;99.90;;;;;;5031922;28;20514;-79
2022/10/02 07:57:39;;;;;;;8.23;1.77;;;12.50;99.90;;;;;;5047335;28;20461;-83
2022/10/02 08:00:14;;;;;;;11.82;1.77;;;12.50;99.90;;;;;;5051125;28;20127;-79
2022/10/02 08:02:59;;;;;;;19.50;2.05;;;12.50;99.90;;;;;;5051758;28;20171;-79
2022/10/02 08:05:35;;;;;;;13.13;1.60;;;12.50;99.90;;;;;;5043802;28;20045;-79
2022/10/02 08:08:09;;;;;;;13.75;2.13;;;12.50;99.90;;;;;;5051109;28;20061;-80
2022/10/02 08:10:40;;;;;;;18.13;2.38;;;12.60;99.90;;;;;;5033226;28;20055;-80
2022/10/02 08:13:15;;;;;;;18.55;2.53;;;12.60;99.90;;;;;;5034283;28;20115;-80
2022/10/02 08:15:46;;;;;;;18.83;3.28;;;12.60;99.90;;;;;;5051553;28;20399;-82
2022/10/02 08:18:17;;;;;;;17.08;2.90;;;12.70;99.90;;;;;;5051275;28;20476;-78
2022/10/02 08:20:45;;;;;;;12.90;2.45;;;12.70;99.90;;;;;;5051393;28;20076;-81
2022/10/02 08:23:13;;;;;;;13.27;1.83;;;12.70;99.90;;;;;;5051082;28;20048;-81
2022/10/02 08:26:05;;;;;;;19.33;2.88;;;12.60;99.90;;;;;;5051726;28;20049;-82
2022/10/02 08:28:50;;;;;;;19.70;2.97;;;12.60;99.90;;;;;;4970404;28;20043;-77
2022/10/02 08:31:16;;;;;;;14.20;2.92;;;12.70;99.90;;;;;;4970811;28;20061;-78
2022/10/02 08:33:42;;;;;;;16.65;2.88;;;12.70;99.90;;;;;;4970834;28;20055;-78
2022/10/02 08:36:13;;;;;;;11.57;2.60;;;12.80;99.90;;;;;;4954117;28;20050;-78
2022/10/02 08:39:06;;;;;;;10.27;2.35;;;12.80;99.90;;;;;;4962202;28;20055;-76
2022/10/02 08:42:00;;;;;;;21.58;2.88;;;12.90;99.90;;;;;;4960615;28;20054;-78
2022/10/02 08:44:30;;;;;;;12.60;2.28;;;12.90;99.90;;;;;;4970616;28;20477;-78
2022/10/02 08:47:26;;;;;;;15.13;2.40;;;13.10;99.90;;;;;;4970697;28;20054;-78
2022/10/02 08:49:52;;;;;;;13.63;2.33;;;13.40;99.90;;;;;;4939135;28;20125;-78
2022/10/02 08:52:27;;;;;;;17.63;2.25;;;13.60;99.90;;;;;;4962708;28;20190;-79
2022/10/02 08:55:04;;;;;;;12.20;2.10;;;13.80;99.90;;;;;;4952879;28;20057;-80
2022/10/02 08:57:42;;;;;;;9.82;1.90;;;14.00;99.90;;;;;;4968593;28;20046;-79
2022/10/02 09:00:35;;;;;;;13.25;2.53;;;14.20;99.90;;;;;;4954005;28;20478;-78
2022/10/02 09:03:28;;;;;;;9.85;2.47;;;14.40;99.90;;;;;;4953428;28;20204;-78
2022/10/02 09:06:03;;;;;;;10.95;2.05;;;14.60;99.90;;;;;;5027197;28;20130;-79
2022/10/02 09:08:57;;;;;;;16.08;2.45;;;14.80;99.90;;;;;;5051251;28;20136;-79
2022/10/02 09:11:36;;;;;;;16.30;3.45;;;15.00;99.90;;;;;;5033079;28;20589;-77
2022/10/02 09:14:19;;;;;;;9.77;2.00;;;15.00;99.90;;;;;;5042663;28;20959;-78
2022/10/02 09:16:57;;;;;;;13.45;2.08;;;15.20;99.90;;;;;;5040237;28;20053;-79
2022/10/02 09:19:32;;;;;;;14.00;1.92;;;15.30;99.90;;;;;;5051363;28;20065;-78
2022/10/02 09:22:16;;;;;;;;;;;15.30;99.90;;;;;;5051772;28;20051;-80
2022/10/02 09:25:04;;;;;;;16.63;3.00;;;15.20;99.90;;;;;;5051970;28;20003;-77
2022/10/02 09:27:53;;;;;;;13.48;2.05;;;15.20;99.90;;;;;;5051129;28;20144;-79
2022/10/02 09:30:42;;;;;;;13.48;2.15;;;15.00;99.90;;;;;;5050752;28;20037;-79
2022/10/02 09:33:23;;;;;;;16.25;2.75;;;15.00;99.90;;;;;;5050487;28;20483;-79
2022/10/02 09:36:07;;;;;;;17.17;2.40;;;14.90;99.90;;;;;;5031227;28;20045;-79
2022/10/02 09:38:50;;;;;;;19.95;2.42;;;14.90;99.90;;;;;;5044833;28;20048;-80
2022/10/02 09:41:46;;;;;;;18.95;2.30;;;15.00;99.90;;;;;;5032677;28;20485;-78
2022/10/02 09:44:27;;;;;;;16.83;2.60;;;14.70;99.90;;;;;;5049744;28;20102;-79
2022/10/02 09:47:17;;;;;;;11.90;2.10;;;14.60;99.90;;;;;;5050230;28;20059;-80
2022/10/02 09:50:02;;;;;;;20.95;3.53;;;14.50;99.90;;;;;;5050214;28;20052;-78
2022/10/02 09:52:33;;;;;;;15.85;2.78;;;14.60;99.90;;;;;;5049660;28;20045;-80
2022/10/02 09:55:35;;;;;;;19.58;2.42;;;14.70;99.90;;;;;;5012532;28;20052;-79
2022/10/02 09:58:29;;;;;;;15.15;2.63;;;15.00;99.90;;;;;;5042294;28;20122;-80
2022/10/02 10:01:10;;;;;;;14.57;1.92;;;15.20;99.90;;;;;;5048692;28;20110;-78
2022/10/02 10:03:57;;;;;;;20.40;2.47;;;15.60;99.90;;;;;;5050050;28;20053;-81
2022/10/02 10:06:49;;;;;;;11.85;2.15;;;15.90;99.90;;;;;;5049804;28;20461;-81
2022/10/02 10:09:26;;;;;;;13.10;2.53;;;16.10;99.90;;;;;;5049953;28;20049;-79
2022/10/02 10:12:08;;;;;;;14.75;3.13;;;16.40;99.90;;;;;;5050033;28;20183;-80
2022/10/02 10:14:39;;;;;;;17.17;2.55;;;16.40;99.90;;;;;;5049601;28;20448;-80
2022/10/02 10:17:55;;;;;;;15.15;2.83;;;16.60;99.90;;;;;;5032096;28;20049;-80
2022/10/02 10:20:35;;;;;;;17.58;2.97;;;16.90;99.90;;;;;;5049872;28;20045;-81
2022/10/02 10:23:41;;;;;;;16.08;2.50;;;16.90;99.90;;;;;;5049613;28;20049;-81
2022/10/02 10:26:42;;;;;;;18.85;2.88;;;17.10;99.90;;;;;;5049401;28;20143;-79
2022/10/02 10:29:38;;;;;;;14.73;2.30;;;17.20;99.90;;;;;;5036057;28;20099;-76
2022/10/02 10:32:23;;;;;;;13.95;2.65;;;17.00;99.90;;;;;;5029694;28;20512;-82
2022/10/02 10:35:04;;;;;;;17.33;2.28;;;16.80;99.90;;;;;;5032163;28;20128;-78
2022/10/02 10:41:15;;;;;;;17.27;2.33;;;16.90;99.90;;;;;;5063037;28;20114;-78
2022/10/02 10:44:14;;;;;;;17.08;2.67;;;17.10;99.90;;;;;;5069375;28;20048;-79
2022/10/02 10:47:19;;;;;;;13.73;2.65;;;17.20;99.90;;;;;;5069160;28;20076;-77
2022/10/02 10:49:53;;;;;;;14.45;3.08;;;16.70;99.90;;;;;;5066091;28;20036;-78
2022/10/02 10:52:46;;;;;;;14.57;2.25;;;16.70;99.90;;;;;;5062098;28;20391;-79
2022/10/02 10:55:38;;;;;;;18.98;2.88;;;16.90;99.90;;;;;;5069136;28;20109;-78
2022/10/02 10:58:45;;;;;;;18.17;2.75;;;17.10;99.90;;;;;;5068717;28;20047;-77
2022/10/02 11:01:18;;;;;;;13.82;2.28;;;17.20;99.90;;;;;;5065871;28;20213;-78
2022/10/02 11:04:19;;;;;;;18.60;2.08;;;17.40;99.90;;;;;;5068946;28;20071;-79
2022/10/02 11:06:54;;;;;;;16.33;2.35;;;17.50;99.90;;;;;;5065298;28;20833;-80
2022/10/02 11:09:41;;;;;;;14.65;2.20;;;17.50;99.90;;;;;;5041081;28;20119;-79
2022/10/02 11:12:27;;;;;;;10.98;2.42;;;17.70;99.90;;;;;;5048212;28;20041;-78
2022/10/02 11:15:01;;;;;;;8.60;1.90;;;17.70;99.90;;;;;;5030494;28;20075;-80
2022/10/02 11:17:43;;;;;;;11.27;1.85;;;17.60;99.90;;;;;;5039286;28;20281;-79
2022/10/02 11:20:42;;;;;;;14.02;2.63;;;17.30;99.90;;;;;;5048826;28;20037;-79
2022/10/02 11:23:30;;;;;;;18.00;2.35;;;17.20;99.90;;;;;;5049110;28;20080;-78
2022/10/02 11:26:23;;;;;;;18.85;2.88;;;17.00;99.90;;;;;;5050972;28;20057;-80
2022/10/02 11:29:08;;;;;;;12.98;1.90;;;16.80;99.90;;;;;;5053006;28;20044;-78
2022/10/02 11:31:46;;;;;;;11.37;2.10;;;16.80;99.90;;;;;;5052976;28;20049;-76
2022/10/02 11:34:41;;;;;;;14.63;2.08;;;16.90;99.90;;;;;;5052168;28;20307;-79
2022/10/02 11:37:23;;;;;;;13.45;2.90;;;17.00;99.90;;;;;;5034233;28;20059;-80
2022/10/02 11:40:27;;;;;;;13.10;1.92;;;17.10;99.90;;;;;;5033438;28;20167;-79
2022/10/02 11:43:14;;;;;;;10.90;2.00;;;17.10;99.90;;;;;;5034797;28;20132;-80
2022/10/02 11:46:10;;;;;;;14.95;2.55;;;17.10;99.90;;;;;;5034415;28;20045;-80
2022/10/02 11:49:14;;;;;;;15.18;2.50;;;17.40;99.90;;;;;;5049698;28;20402;-79
2022/10/02 11:52:10;;;;;;;12.07;2.10;;;17.50;99.90;;;;;;5032497;28;20107;-78
2022/10/02 11:54:55;;;;;;;22.02;2.47;;;17.70;99.90;;;;;;5048450;28;20061;-80
2022/10/02 11:57:34;;;;;;;14.27;2.45;;;17.80;99.90;;;;;;5052378;28;20056;-85
2022/10/02 12:00:38;;;;;;;7.45;1.58;;;17.90;99.90;;;;;;5051036;28;20496;-76
2022/10/02 12:03:34;;;;;;;19.92;2.17;;;18.10;99.90;;;;;;4970743;28;20565;-81
2022/10/02 12:06:20;;;;;;;13.07;2.20;;;18.20;99.90;;;;;;4970443;28;20063;-79
2022/10/02 12:09:11;;;;;;;12.65;1.88;;;17.80;99.90;;;;;;4935254;29;20063;-85
2022/10/02 12:11:57;;;;;;;13.40;1.80;;;17.60;99.90;;;;;;4951428;29;20254;-78
2022/10/02 12:15:11;;;;;;;13.77;1.70;;;17.40;99.90;;;;;;4951161;29;20087;-84
2022/10/02 12:17:55;;;;;;;11.50;1.25;;;17.30;99.90;;;;;;4878632;29;20654;-81
2022/10/02 12:27:08;;;;;;;8.93;2.13;;;16.80;99.90;;;;;;4895872;29;20068;-79
2022/10/02 12:29:39;;;;;;;10.45;1.60;;;16.90;99.90;;;;;;4878815;29;20527;-77
2022/10/02 12:32:21;;;;;;;12.75;2.08;;;16.80;99.90;;;;;;4894879;29;20055;-81
2022/10/02 12:35:18;;;;;;;13.27;1.98;;;17.00;99.90;;;;;;4895722;29;20060;-82
2022/10/02 12:37:52;;;;;;;13.07;1.70;;;17.30;99.90;;;;;;4866056;29;20103;-81
2022/10/02 12:40:51;;;;;;;10.43;1.90;;;17.30;99.90;;;;;;5126510;22;20058;-84
2022/10/02 12:43:54;;;;;;;11.30;1.90;;;16.90;99.90;;;;;;5053934;28;20060;-82
2022/10/02 12:47:03;;;;;;;10.85;1.67;;;16.60;99.90;;;;;;5085666;28;20075;-86
2022/10/02 12:49:57;;;;;;;15.15;2.03;;;16.90;99.90;;;;;;5091935;28;20040;-82
2022/10/02 12:52:55;;;;;;;9.63;1.90;;;16.90;99.90;;;;;;5062640;28;20056;-83
2022/10/02 12:55:42;;;;;;;15.50;1.92;;;16.90;99.90;;;;;;5091351;28;20051;-82
2022/10/02 12:58:22;;;;;;;17.35;2.50;;;17.30;99.90;;;;;;5073318;28;20043;-83
2022/10/02 13:01:07;;;;;;;15.57;2.47;;;17.60;99.90;;;;;;5091595;28;20047;-82
2022/10/02 13:03:54;;;;;;;15.75;2.42;;;17.80;99.90;;;;;;5056323;28;20478;-82
2022/10/02 13:06:52;;;;;;;13.52;2.15;;;17.90;99.90;;;;;;5056607;28;20406;-81
2022/10/02 13:09:23;;;;;;;22.05;2.70;;;18.00;99.90;;;;;;5091274;28;20119;-82
2022/10/02 13:12:22;;;;;;;18.92;2.40;;;18.00;99.90;;;;;;5073096;28;20069;-82
2022/10/02 13:15:18;;;;;;;19.65;2.38;;;18.20;99.90;;;;;;5091523;28;20044;-82
2022/10/02 13:18:02;;;;;;;13.23;2.00;;;18.20;99.90;;;;;;5091351;28;20512;-83
2022/10/02 13:20:38;;;;;;;11.20;2.28;;;18.40;99.90;;;;;;5091143;28;20044;-85
2022/10/02 13:23:22;;;;;;;15.90;2.20;;;18.40;99.90;;;;;;5091129;28;20386;-85
2022/10/02 13:25:55;;;;;;;13.18;1.88;;;18.10;99.90;;;;;;5092209;28;20040;-83
2022/10/02 13:28:38;;;;;;;22.25;2.47;;;17.70;99.90;;;;;;5057075;28;20043;-82
2022/10/02 13:31:22;;;;;;;11.82;2.30;;;17.50;99.90;;;;;;5091412;28;20089;-83
2022/10/02 13:34:07;;;;;;;13.68;2.42;;;17.30;99.90;;;;;;5091729;28;20039;-81
2022/10/02 13:36:45;;;;;;;12.05;2.47;;;16.80;99.90;;;;;;5091524;28;20051;-82
2022/10/02 13:39:39;;;;;;;13.60;2.47;;;17.00;99.90;;;;;;5072021;28;20105;-82
2022/10/02 13:42:17;;;;;;;13.45;2.22;;;17.20;99.90;;;;;;5072488;28;20112;-83
2022/10/02 13:45:02;;;;;;;18.23;2.15;;;17.20;99.90;;;;;;5090712;28;20510;-79
2022/10/02 13:47:40;;;;;;;20.10;3.08;;;17.10;99.90;;;;;;5072142;28;20047;-79
2022/10/02 13:50:35;;;;;;;14.90;2.50;;;16.90;99.90;;;;;;5090222;28;20439;-79
2022/10/02 13:53:06;;;;;;;17.57;2.63;;;17.00;99.90;;;;;;5007989;28;20053;-79
2022/10/02 13:56:06;;;;;;;14.70;3.50;;;16.90;99.90;;;;;;4991025;28;20379;-81
2022/10/02 13:59:10;;;;;;;22.48;2.70;;;16.90;99.90;;;;;;4930088;29;20134;-78
2022/10/02 14:02:23;;;;;;;11.05;1.67;;;16.90;99.90;;;;;;4892530;29;20500;-77
2022/10/02 14:05:04;;;;;;;13.50;1.95;;;16.80;99.90;;;;;;4840079;29;20562;-81